createdAt,value
2018-12-19T00:01:01.572Z,2.40
2018-12-19T00:03:32.572Z,2.50
2018-12-19T00:06:12.422Z,2.60
2018-12-19T00:08:45.665Z,2.50
2018-12-19T00:11:36.383Z,2.40
2018-12-19T00:14:16.517Z,2.40
2018-12-19T00:16:49.662Z,2.40
2018-12-19T00:19:19.113Z,2.30
2018-12-19T00:21:50.030Z,2.30
2018-12-19T00:24:38.166Z,2.50
2018-12-19T00:27:18.420Z,2.70
2018-12-19T00:32:56.531Z,2.80
2018-12-19T00:35:27.917Z,2.60
2018-12-19T00:37:59.140Z,2.60
2018-12-19T00:40:32.378Z,2.50
2018-12-19T00:43:01.868Z,2.60
2018-12-19T00:45:41.483Z,2.50
2018-12-19T00:48:21.195Z,2.50
2018-12-19T00:50:52.164Z,2.60
2018-12-19T00:53:23.019Z,2.60
2018-12-19T00:55:56.535Z,2.50
2018-12-19T00:58:27.832Z,2.60
2018-12-19T01:01:01.127Z,2.50
2018-12-19T01:03:32.660Z,2.40
2018-12-19T01:06:23.129Z,2.50
2018-12-19T01:09:15.974Z,2.40
2018-12-19T01:11:49.329Z,2.30
2018-12-19T01:14:29.379Z,2.10
2018-12-19T01:17:03.054Z,2.30
2018-12-19T01:19:37.082Z,2.30
2018-12-19T01:22:24.001Z,2.30
2018-12-19T01:24:57.999Z,2.30
2018-12-19T01:27:35.715Z,2.30
2018-12-19T01:30:08.806Z,2.20
2018-12-19T01:32:40.242Z,2.10
2018-12-19T01:35:20.004Z,2.10
2018-12-19T01:37:53.402Z,2.10
2018-12-19T01:40:24.840Z,2.00
2018-12-19T01:43:13.474Z,2.00
2018-12-19T01:46:04.345Z,1.90
2018-12-19T01:48:38.390Z,1.80
2018-12-19T01:51:13.410Z,1.90
2018-12-19T01:53:49.342Z,1.90
2018-12-19T01:59:22.505Z,1.90
2018-12-19T02:01:53.507Z,1.80
2018-12-19T02:04:33.372Z,1.90
2018-12-19T02:07:21.660Z,2.00
2018-12-19T02:10:01.364Z,2.00
2018-12-19T02:12:42.296Z,2.00
2018-12-19T02:15:30.692Z,2.00
2018-12-19T02:18:04.587Z,2.10
2018-12-19T02:20:38.469Z,2.00
2018-12-19T02:23:09.966Z,1.90
2018-12-19T02:25:49.894Z,1.90
2018-12-19T02:28:20.907Z,1.80
2018-12-19T02:31:00.816Z,1.80
2018-12-19T02:33:35.441Z,1.70
2018-12-19T02:36:05.056Z,1.70
2018-12-19T02:38:36.005Z,1.60
2018-12-19T02:41:06.783Z,1.50
2018-12-19T02:43:38.002Z,1.60
2018-12-19T02:46:09.500Z,1.60
2018-12-19T02:48:40.520Z,1.60
2018-12-19T02:51:13.817Z,1.50
2018-12-19T02:53:47.731Z,1.50
2018-12-19T02:56:17.223Z,1.40
2018-12-19T02:58:48.354Z,1.50
2018-12-19T03:01:19.088Z,1.50
2018-12-19T03:03:52.503Z,1.50
2018-12-19T03:06:25.631Z,1.50
2018-12-19T03:08:59.517Z,1.50
2018-12-19T03:11:29.007Z,1.50
2018-12-19T03:14:02.539Z,1.40
2018-12-19T03:16:36.592Z,1.40
2018-12-19T03:19:16.709Z,1.50
2018-12-19T03:21:47.736Z,1.40
2018-12-19T03:24:18.830Z,1.30
2018-12-19T03:26:58.658Z,1.30
2018-12-19T03:29:38.482Z,1.20
2018-12-19T03:32:09.489Z,1.30
2018-12-19T03:34:42.785Z,1.40
2018-12-19T03:37:16.599Z,1.40
2018-12-19T03:39:50.534Z,1.30
2018-12-19T03:42:22.069Z,1.30
2018-12-19T03:44:55.341Z,1.30
2018-12-19T03:47:29.258Z,1.40
2018-12-19T03:50:07.060Z,1.40
2018-12-19T03:52:36.582Z,1.30
2018-12-19T03:55:09.920Z,1.20
2018-12-19T03:57:43.074Z,1.30
2018-12-19T04:00:14.883Z,1.30
2018-12-19T04:02:46.326Z,1.30
2018-12-19T04:05:19.664Z,1.30
2018-12-19T04:08:00.155Z,1.30
2018-12-19T04:10:39.914Z,1.20
2018-12-19T04:13:30.158Z,1.20
2018-12-19T04:16:10.404Z,1.30
2018-12-19T04:18:43.790Z,1.40
2018-12-19T04:21:17.770Z,1.30
2018-12-19T04:23:58.013Z,1.40
2018-12-19T04:29:36.511Z,1.40
2018-12-19T04:32:05.898Z,1.40
2018-12-19T04:34:39.056Z,1.40
2018-12-19T04:37:18.560Z,1.30
2018-12-19T04:40:05.368Z,1.40
2018-12-19T04:42:41.620Z,1.50
2018-12-19T04:45:10.690Z,1.40
2018-12-19T04:47:50.442Z,1.40
2018-12-19T04:50:23.897Z,1.40
2018-12-19T04:52:55.218Z,1.30
2018-12-19T04:55:36.963Z,1.30
2018-12-19T04:58:10.572Z,1.30
2018-12-19T05:00:48.253Z,1.40
2018-12-19T05:03:36.954Z,1.50
2018-12-19T05:06:08.416Z,1.30
2018-12-19T05:08:48.188Z,1.40
2018-12-19T05:11:21.677Z,1.40
2018-12-19T05:13:58.896Z,1.30
2018-12-19T05:16:36.791Z,1.40
2018-12-19T05:19:10.068Z,1.40
2018-12-19T05:21:41.424Z,1.40
2018-12-19T05:24:22.942Z,1.40
2018-12-19T05:26:56.345Z,1.30
2018-12-19T05:29:27.823Z,1.40
2018-12-19T05:31:58.734Z,1.30
2018-12-19T05:34:29.543Z,1.30
2018-12-19T05:37:09.427Z,1.40
2018-12-19T05:39:49.266Z,1.40
2018-12-19T05:42:22.948Z,1.30
2018-12-19T05:45:03.322Z,1.30
2018-12-19T05:47:34.497Z,1.30
2018-12-19T05:50:06.727Z,1.20
2018-12-19T05:52:36.465Z,1.20
2018-12-19T05:55:16.129Z,1.30
2018-12-19T05:57:49.579Z,1.30
2018-12-19T06:00:23.522Z,1.30
2018-12-19T06:02:54.200Z,1.30
2018-12-19T06:05:27.661Z,1.40
2018-12-19T06:08:00.701Z,1.50
2018-12-19T06:10:41.140Z,1.50
2018-12-19T06:13:11.940Z,1.50
2018-12-19T06:15:49.420Z,1.50
2018-12-19T06:18:18.859Z,1.40
2018-12-19T06:20:58.897Z,1.40
2018-12-19T06:23:32.204Z,1.40
2018-12-19T06:26:03.606Z,1.30
2018-12-19T06:28:37.038Z,1.30
2018-12-19T06:31:10.132Z,1.40
2018-12-19T06:33:44.162Z,1.40
2018-12-19T06:36:24.709Z,1.50
2018-12-19T06:39:04.514Z,1.50
2018-12-19T06:41:38.234Z,1.50
2018-12-19T06:44:28.788Z,1.60
2018-12-19T06:47:16.860Z,1.50
2018-12-19T06:49:49.837Z,1.50
2018-12-19T06:52:23.857Z,1.50
2018-12-19T06:55:03.389Z,1.50
2018-12-19T06:57:43.284Z,1.50
2018-12-19T07:00:16.656Z,1.40
2018-12-19T07:03:07.393Z,1.60
2018-12-19T07:05:47.519Z,1.60
2018-12-19T07:08:18.435Z,1.50
2018-12-19T07:13:58.432Z,1.50
2018-12-19T07:16:46.326Z,1.50
2018-12-19T07:19:26.686Z,1.60
2018-12-19T07:22:06.504Z,1.70
2018-12-19T07:24:37.584Z,1.80
2018-12-19T07:30:11.496Z,1.80
2018-12-19T07:32:52.386Z,1.70
2018-12-19T07:35:32.126Z,1.80
2018-12-19T07:38:05.580Z,1.80
2018-12-19T07:43:38.555Z,1.80
2018-12-19T07:46:09.631Z,1.80
2018-12-19T07:48:50.679Z,1.80
2018-12-19T07:51:41.260Z,2.00
2018-12-19T07:54:32.137Z,2.00
2018-12-19T07:57:12.586Z,2.00
2018-12-19T08:00:00.922Z,1.90
2018-12-19T08:02:32.273Z,2.00
2018-12-19T08:05:05.838Z,2.00
2018-12-19T08:07:39.582Z,2.10
2018-12-19T08:10:21.397Z,2.00
2018-12-19T08:12:52.407Z,2.10
2018-12-19T08:15:32.098Z,2.10
2018-12-19T08:18:11.903Z,2.10
2018-12-19T08:20:41.362Z,2.20
2018-12-19T08:23:14.684Z,2.20
2018-12-19T08:25:52.614Z,2.20
2018-12-19T08:31:26.257Z,2.20
2018-12-19T08:34:14.078Z,2.30
2018-12-19T08:36:56.765Z,2.20
2018-12-19T08:39:36.523Z,2.20
2018-12-19T08:42:26.761Z,2.30
2018-12-19T08:45:14.871Z,2.20
2018-12-19T08:47:55.311Z,2.30
2018-12-19T08:50:28.501Z,2.30
2018-12-19T08:53:02.329Z,2.30
2018-12-19T08:55:42.711Z,2.40
2018-12-19T08:58:22.668Z,2.40
2018-12-19T09:01:02.636Z,2.50
2018-12-19T09:03:42.635Z,2.50
2018-12-19T09:06:22.588Z,2.50
2018-12-19T09:09:10.835Z,2.50
2018-12-19T09:14:47.841Z,2.50
2018-12-19T09:17:19.627Z,2.50
2018-12-19T09:19:59.705Z,2.50
2018-12-19T09:22:29.277Z,2.50
2018-12-19T09:25:17.296Z,2.50
2018-12-19T09:30:54.263Z,2.40
2018-12-19T09:33:42.025Z,2.40
2018-12-19T09:36:15.883Z,2.40
2018-12-19T09:38:46.502Z,2.60
2018-12-19T09:41:25.949Z,2.70
2018-12-19T09:47:12.441Z,2.70
2018-12-19T09:52:54.399Z,2.70
2018-12-19T09:58:30.429Z,2.80
2018-12-19T10:01:05.511Z,2.70
2018-12-19T10:03:36.765Z,2.80
2018-12-19T10:06:16.592Z,2.80
2018-12-19T10:08:56.301Z,2.90
2018-12-19T10:11:36.084Z,2.90
2018-12-19T10:14:24.619Z,2.90
2018-12-19T10:17:05.011Z,2.90
2018-12-19T10:19:44.827Z,2.90
2018-12-19T10:28:15.637Z,3.10
2018-12-19T10:30:59.160Z,3.00
2018-12-19T10:33:39.306Z,2.90
2018-12-19T10:36:08.453Z,2.90
2018-12-19T10:38:39.416Z,2.80
2018-12-19T10:41:25.722Z,2.80
2018-12-19T10:43:57.664Z,2.80
2018-12-19T10:46:31.710Z,2.90
2018-12-19T10:49:18.250Z,2.80
2018-12-19T10:52:06.314Z,2.70
2018-12-19T10:54:46.991Z,2.80
2018-12-19T10:57:17.855Z,2.80
2018-12-19T11:02:54.334Z,3.00
2018-12-19T11:05:34.146Z,3.00
2018-12-19T11:08:04.998Z,2.90
2018-12-19T11:10:45.185Z,2.80
2018-12-19T11:13:25.468Z,2.90
2018-12-19T11:15:58.880Z,2.90
2018-12-19T11:18:39.223Z,2.80
2018-12-19T11:21:26.688Z,2.90
2018-12-19T11:24:17.614Z,2.90
2018-12-19T11:26:58.058Z,2.90
2018-12-19T11:29:39.752Z,3.00
2018-12-19T11:32:10.607Z,3.00
2018-12-19T11:34:50.204Z,3.20
2018-12-19T11:37:33.041Z,3.10
2018-12-19T11:40:12.778Z,3.10
2018-12-19T11:42:46.149Z,3.10
2018-12-19T11:45:17.662Z,3.00
2018-12-19T11:47:58.441Z,3.00
2018-12-19T11:50:29.487Z,2.90
2018-12-19T11:56:09.564Z,3.20
2018-12-19T11:58:49.969Z,3.00
2018-12-19T12:01:27.557Z,3.10
2018-12-19T12:04:08.109Z,3.10
2018-12-19T12:06:54.213Z,3.20
2018-12-19T12:09:24.201Z,3.30
2018-12-19T12:11:55.552Z,3.20
2018-12-19T12:17:40.454Z,3.20
2018-12-19T12:20:21.164Z,3.20
2018-12-19T12:22:52.780Z,3.20
2018-12-19T12:25:26.072Z,3.30
2018-12-19T12:28:06.433Z,3.20
2018-12-19T12:30:46.085Z,3.20
2018-12-19T12:33:36.207Z,3.20
2018-12-19T12:36:16.673Z,3.20
2018-12-19T12:38:50.089Z,3.20
2018-12-19T12:41:23.901Z,3.20
2018-12-19T12:43:55.465Z,3.20
2018-12-19T12:46:26.468Z,3.10
2018-12-19T12:48:57.230Z,3.00
2018-12-19T12:51:30.476Z,3.00
2018-12-19T12:54:04.351Z,3.00
2018-12-19T12:56:44.760Z,2.90
2018-12-19T12:59:24.518Z,2.90
2018-12-19T13:01:57.830Z,2.90
2018-12-19T13:04:38.061Z,3.00
2018-12-19T13:07:11.132Z,2.90
2018-12-19T13:09:40.299Z,2.90
2018-12-19T13:12:11.282Z,3.00
2018-12-19T13:17:22.830Z,2.90
2018-12-19T13:20:11.270Z,2.80
2018-12-19T13:22:45.191Z,2.80
2018-12-19T13:25:15.774Z,2.80
2018-12-19T13:30:52.547Z,2.80
2018-12-19T13:33:25.858Z,2.70
2018-12-19T13:36:06.490Z,2.60
2018-12-19T13:38:47.098Z,2.70
2018-12-19T13:41:27.231Z,2.70
2018-12-19T13:44:00.946Z,2.70
2018-12-19T13:46:48.489Z,2.80
2018-12-19T13:52:05.652Z,2.70
2018-12-19T13:54:45.323Z,2.70
2018-12-19T13:57:25.145Z,2.80
2018-12-19T14:00:05.054Z,2.80
2018-12-19T14:02:38.833Z,2.70
2018-12-19T14:05:19.098Z,2.60
2018-12-19T14:07:52.166Z,2.50
2018-12-19T14:10:23.654Z,2.50
2018-12-19T14:13:03.417Z,2.40
2018-12-19T14:15:49.717Z,2.50
2018-12-19T14:18:19.103Z,2.50
2018-12-19T14:21:05.228Z,2.40
2018-12-19T14:23:43.324Z,2.50
2018-12-19T14:26:23.693Z,2.40
2018-12-19T14:28:55.101Z,2.40
2018-12-19T14:31:35.269Z,2.40
2018-12-19T14:34:08.539Z,2.50
2018-12-19T14:36:48.809Z,2.30
2018-12-19T14:39:37.104Z,2.40
2018-12-19T14:42:19.123Z,2.40
2018-12-19T14:44:50.537Z,2.40
2018-12-19T14:47:30.306Z,2.20
2018-12-19T14:50:10.175Z,2.20
2018-12-19T14:52:50.299Z,2.30
2018-12-19T14:55:23.849Z,2.30
2018-12-19T15:00:59.766Z,2.30
2018-12-19T15:03:31.175Z,2.40
2018-12-19T15:06:04.570Z,2.30
2018-12-19T15:11:32.985Z,2.30
2018-12-19T15:14:04.324Z,2.30
2018-12-19T15:16:37.923Z,2.20
2018-12-19T15:21:45.822Z,2.30
2018-12-19T15:24:17.047Z,2.30
2018-12-19T15:26:57.143Z,2.40
2018-12-19T15:29:25.974Z,2.30
2018-12-19T15:31:58.072Z,2.40
2018-12-19T15:34:37.718Z,2.50
2018-12-19T15:37:17.504Z,2.50
2018-12-19T15:39:48.493Z,2.60
2018-12-19T15:42:19.616Z,2.50
2018-12-19T15:44:59.621Z,2.50
2018-12-19T15:50:38.218Z,2.40
2018-12-19T15:53:24.531Z,2.30
2018-12-19T15:55:54.516Z,2.40
2018-12-19T15:58:31.803Z,2.50
2018-12-19T16:01:02.794Z,2.50
2018-12-19T16:03:48.715Z,2.40
2018-12-19T16:06:28.938Z,2.40
2018-12-19T16:09:09.484Z,2.40
2018-12-19T16:11:40.707Z,2.40
2018-12-19T16:14:27.602Z,2.40
2018-12-19T16:16:59.035Z,2.40
2018-12-19T16:22:34.711Z,2.50
2018-12-19T16:25:08.061Z,2.50
2018-12-19T16:27:59.041Z,2.50
2018-12-19T16:30:30.378Z,2.40
2018-12-19T16:33:01.390Z,2.50
2018-12-19T16:35:39.585Z,2.50
2018-12-19T16:38:10.305Z,2.50
2018-12-19T16:40:50.264Z,2.50
2018-12-19T16:43:27.543Z,2.60
2018-12-19T16:46:07.842Z,2.70
2018-12-19T16:48:38.770Z,2.70
2018-12-19T16:51:19.827Z,2.70
2018-12-19T16:53:50.824Z,2.70
2018-12-19T16:56:21.827Z,2.70
2018-12-19T16:59:02.703Z,2.60
2018-12-19T17:01:33.750Z,2.70
2018-12-19T17:04:05.157Z,2.50
2018-12-19T17:06:44.963Z,2.50
2018-12-19T17:09:18.378Z,2.50
2018-12-19T17:11:49.850Z,2.50
2018-12-19T17:14:38.087Z,2.50
2018-12-19T17:17:25.633Z,2.60
2018-12-19T17:20:03.563Z,2.50
2018-12-19T17:22:37.425Z,2.50
2018-12-19T17:25:25.198Z,2.60
2018-12-19T17:28:11.935Z,2.50
2018-12-19T17:30:45.869Z,2.50
2018-12-19T17:36:09.928Z,2.50
2018-12-19T17:38:50.046Z,2.50
2018-12-19T17:44:36.868Z,2.50
2018-12-19T17:47:25.209Z,2.50
2018-12-19T17:50:13.102Z,2.50
2018-12-19T17:52:44.609Z,2.60
2018-12-19T17:55:24.216Z,2.50
2018-12-19T17:57:57.621Z,2.50
2018-12-19T18:03:33.457Z,2.50
2018-12-19T18:06:21.340Z,2.50
2018-12-19T18:09:04.065Z,2.40
2018-12-19T18:11:34.849Z,2.60
2018-12-19T18:14:14.840Z,2.50
2018-12-19T18:16:54.706Z,2.60
2018-12-19T18:19:34.662Z,2.50
2018-12-19T18:22:05.884Z,2.50
2018-12-19T18:24:45.823Z,2.50
2018-12-19T18:27:19.203Z,2.40
2018-12-19T18:29:58.848Z,2.40
2018-12-19T18:32:29.852Z,2.40
2018-12-19T18:35:00.943Z,2.40
2018-12-19T18:37:51.255Z,2.40
2018-12-19T18:40:31.406Z,2.30
2018-12-19T18:43:02.686Z,2.30
2018-12-19T18:45:42.292Z,2.20
2018-12-19T18:48:22.099Z,2.20
2018-12-19T18:51:01.657Z,2.10
2018-12-19T18:53:42.621Z,2.20
2018-12-19T18:56:13.726Z,2.20
2018-12-19T18:58:53.538Z,2.20
2018-12-19T19:01:33.506Z,2.20
2018-12-19T19:04:04.541Z,2.40
2018-12-19T19:06:52.995Z,2.30
2018-12-19T19:09:27.061Z,2.30
2018-12-19T19:11:56.491Z,2.30
2018-12-19T19:14:27.446Z,2.20
2018-12-19T19:17:07.271Z,2.20
2018-12-19T19:19:38.215Z,2.30
2018-12-19T19:22:17.846Z,2.20
2018-12-19T19:24:49.098Z,2.20
2018-12-19T19:27:29.557Z,2.10
2018-12-19T19:30:09.497Z,2.10
2018-12-19T19:32:43.131Z,2.20
2018-12-19T19:35:30.898Z,2.30
2018-12-19T19:38:08.839Z,2.20
2018-12-19T19:40:42.587Z,2.40
2018-12-19T19:43:26.525Z,2.30
2018-12-19T19:45:58.200Z,2.30
2018-12-19T19:48:38.369Z,2.30
2018-12-19T19:51:18.202Z,2.20
2018-12-19T19:53:58.020Z,2.30
2018-12-19T19:56:48.467Z,2.30
2018-12-19T19:59:28.806Z,2.20
2018-12-19T20:02:00.054Z,2.20
2018-12-19T20:04:39.690Z,2.20
2018-12-19T20:10:22.598Z,2.30
2018-12-19T20:13:04.773Z,2.30
2018-12-19T20:15:36.472Z,2.20
2018-12-19T20:18:10.334Z,2.20
2018-12-19T20:20:41.698Z,2.40
2018-12-19T20:23:15.015Z,2.40
2018-12-19T20:25:44.560Z,2.30
2018-12-19T20:28:15.803Z,2.30
2018-12-19T20:33:56.439Z,2.20
2018-12-19T20:36:36.526Z,2.10
2018-12-19T20:39:10.052Z,2.30
2018-12-19T20:41:40.307Z,2.40
2018-12-19T20:44:11.519Z,2.40
2018-12-19T20:46:43.192Z,2.30
2018-12-19T20:49:16.221Z,2.20
2018-12-19T20:51:47.826Z,2.20
2018-12-19T20:54:37.914Z,2.20
2018-12-19T20:57:18.335Z,2.20
2018-12-19T20:59:56.585Z,2.10
2018-12-19T21:02:36.973Z,2.20
2018-12-19T21:05:14.495Z,2.30
2018-12-19T21:07:43.693Z,2.20
2018-12-19T21:10:23.230Z,2.20
2018-12-19T21:12:53.999Z,2.10
2018-12-19T21:15:34.781Z,2.10
2018-12-19T21:18:20.238Z,2.10
2018-12-19T21:20:53.915Z,2.20
2018-12-19T21:23:44.494Z,2.20
2018-12-19T21:26:18.538Z,2.20
2018-12-19T21:28:58.759Z,2.30
2018-12-19T21:31:29.542Z,2.30
2018-12-19T21:34:06.891Z,2.30
2018-12-19T21:36:44.766Z,2.30
2018-12-19T21:39:25.252Z,2.20
2018-12-19T21:41:58.426Z,2.20
2018-12-19T21:44:38.883Z,2.20
2018-12-19T21:47:16.182Z,2.30
2018-12-19T21:49:53.902Z,2.30
2018-12-19T21:52:25.535Z,2.20
2018-12-19T21:54:58.675Z,2.20
2018-12-19T21:57:31.806Z,2.20
2018-12-19T22:00:08.101Z,2.30
2018-12-19T22:02:41.588Z,2.30
2018-12-19T22:05:11.001Z,2.20
2018-12-19T22:07:50.955Z,2.20
2018-12-19T22:10:21.846Z,2.30
2018-12-19T22:12:53.010Z,2.20
2018-12-19T22:15:27.112Z,2.10
2018-12-19T22:18:02.556Z,2.10
2018-12-19T22:20:32.323Z,2.00
2018-12-19T22:23:05.489Z,2.10
2018-12-19T22:25:45.710Z,2.10
2018-12-19T22:28:26.490Z,2.30
2018-12-19T22:31:06.501Z,2.20
2018-12-19T22:33:37.420Z,2.20
2018-12-19T22:36:08.572Z,2.20
2018-12-19T22:38:48.501Z,2.20
2018-12-19T22:41:30.289Z,2.20
2018-12-19T22:44:10.256Z,2.30
2018-12-19T22:47:00.839Z,2.10
2018-12-19T22:49:32.718Z,2.20
2018-12-19T22:52:03.389Z,2.00
2018-12-19T22:54:53.495Z,2.00
2018-12-19T22:57:27.352Z,2.00
2018-12-19T23:00:10.711Z,2.10
2018-12-19T23:02:47.388Z,2.10
2018-12-19T23:05:33.003Z,2.10
2018-12-19T23:08:10.641Z,2.20
2018-12-19T23:10:44.347Z,2.30
2018-12-19T23:13:17.998Z,2.10
2018-12-19T23:15:47.541Z,2.00
2018-12-19T23:18:27.194Z,2.10
2018-12-19T23:21:07.341Z,2.20
2018-12-19T23:23:38.185Z,2.20
2018-12-19T23:26:18.005Z,2.20
2018-12-19T23:28:51.022Z,2.20
2018-12-19T23:37:26.340Z,2.30
2018-12-19T23:40:12.534Z,2.40
2018-12-19T23:42:44.210Z,2.30
2018-12-19T23:45:24.126Z,2.30
2018-12-19T23:51:04.510Z,2.30
2018-12-19T23:53:34.032Z,2.30
2018-12-19T23:56:04.923Z,2.20
2018-12-19T23:58:44.744Z,2.20
